sensor_id;sensor_type;location;lat;lon;timestamp;P1;durP1;ratioP1;P2;durP2;ratioP2
64543;SDS011;50936;51.660;5.616;2022-09-20T00:03:50;7.82;;;2.40;;
64543;SDS011;50936;51.660;5.616;2022-09-20T00:06:22;12.05;;;2.22;;
64543;SDS011;50936;51.660;5.616;2022-09-20T00:08:56;13.75;;;2.42;;
64543;SDS011;50936;51.660;5.616;2022-09-20T00:11:26;11.57;;;2.65;;
64543;SDS011;50936;51.660;5.616;2022-09-20T00:13:57;10.45;;;2.38;;
64543;SDS011;50936;51.660;5.616;2022-09-20T00:16:27;6.43;;;2.47;;
64543;SDS011;50936;51.660;5.616;2022-09-20T00:18:59;7.57;;;2.50;;
64543;SDS011;50936;51.660;5.616;2022-09-20T00:21:31;7.53;;;2.63;;
64543;SDS011;50936;51.660;5.616;2022-09-20T00:24:01;9.20;;;2.60;;
64543;SDS011;50936;51.660;5.616;2022-09-20T00:26:29;14.15;;;2.97;;
64543;SDS011;50936;51.660;5.616;2022-09-20T00:28:56;8.10;;;2.33;;
64543;SDS011;50936;51.660;5.616;2022-09-20T00:31:24;12.70;;;3.17;;
64543;SDS011;50936;51.660;5.616;2022-09-20T00:33:55;7.85;;;2.63;;
64543;SDS011;50936;51.660;5.616;2022-09-20T00:36:43;7.53;;;2.80;;
64543;SDS011;50936;51.660;5.616;2022-09-20T00:39:11;11.68;;;2.80;;
64543;SDS011;50936;51.660;5.616;2022-09-20T00:41:41;10.57;;;3.05;;
64543;SDS011;50936;51.660;5.616;2022-09-20T00:47:48;9.68;;;3.33;;
64543;SDS011;50936;51.660;5.616;2022-09-20T00:53:20;11.15;;;3.40;;
64543;SDS011;50936;51.660;5.616;2022-09-20T00:58:29;11.15;;;3.28;;
64543;SDS011;50936;51.660;5.616;2022-09-20T01:01:03;7.00;;;3.40;;
64543;SDS011;50936;51.660;5.616;2022-09-20T01:03:33;11.45;;;3.63;;
64543;SDS011;50936;51.660;5.616;2022-09-20T01:06:05;11.25;;;4.03;;
64543;SDS011;50936;51.660;5.616;2022-09-20T01:08:38;11.98;;;4.20;;
64543;SDS011;50936;51.660;5.616;2022-09-20T01:13:37;12.63;;;4.00;;
64543;SDS011;50936;51.660;5.616;2022-09-20T01:16:05;15.73;;;5.00;;
64543;SDS011;50936;51.660;5.616;2022-09-20T01:18:34;12.05;;;4.30;;
64543;SDS011;50936;51.660;5.616;2022-09-20T01:21:04;11.73;;;3.50;;
64543;SDS011;50936;51.660;5.616;2022-09-20T01:23:37;12.15;;;4.38;;
64543;SDS011;50936;51.660;5.616;2022-09-20T01:26:28;12.52;;;4.80;;
64543;SDS011;50936;51.660;5.616;2022-09-20T01:31:55;10.48;;;4.00;;
64543;SDS011;50936;51.660;5.616;2022-09-20T01:34:28;12.55;;;3.58;;
64543;SDS011;50936;51.660;5.616;2022-09-20T01:40:02;11.55;;;4.03;;
64543;SDS011;50936;51.660;5.616;2022-09-20T01:42:39;12.68;;;4.90;;
64543;SDS011;50936;51.660;5.616;2022-09-20T01:45:31;14.77;;;4.53;;
64543;SDS011;50936;51.660;5.616;2022-09-20T01:50:53;11.27;;;4.60;;
64543;SDS011;50936;51.660;5.616;2022-09-20T01:54:00;15.57;;;4.88;;
64543;SDS011;50936;51.660;5.616;2022-09-20T02:05:41;12.02;;;4.13;;
64543;SDS011;50936;51.660;5.616;2022-09-20T02:08:26;14.40;;;4.68;;
64543;SDS011;50936;51.660;5.616;2022-09-20T02:11:14;8.98;;;4.30;;
64543;SDS011;50936;51.660;5.616;2022-09-20T02:30:47;7.40;;;3.05;;
64543;SDS011;50936;51.660;5.616;2022-09-20T02:37:14;10.00;;;3.92;;
64543;SDS011;50936;51.660;5.616;2022-09-20T02:46:22;11.98;;;3.42;;
64543;SDS011;50936;51.660;5.616;2022-09-20T02:49:32;10.13;;;3.60;;
64543;SDS011;50936;51.660;5.616;2022-09-20T02:55:17;8.50;;;3.38;;
64543;SDS011;50936;51.660;5.616;2022-09-20T03:04:56;8.48;;;3.03;;
64543;SDS011;50936;51.660;5.616;2022-09-20T03:25:32;12.48;;;2.90;;
64543;SDS011;50936;51.660;5.616;2022-09-20T03:34:17;7.15;;;2.47;;
64543;SDS011;50936;51.660;5.616;2022-09-20T03:43:27;8.15;;;2.55;;
64543;SDS011;50936;51.660;5.616;2022-09-20T03:51:29;8.77;;;2.33;;
64543;SDS011;50936;51.660;5.616;2022-09-20T04:03:52;7.22;;;2.38;;
64543;SDS011;50936;51.660;5.616;2022-09-20T04:12:41;8.75;;;2.30;;
64543;SDS011;50936;51.660;5.616;2022-09-20T04:21:09;8.68;;;2.30;;
64543;SDS011;50936;51.660;5.616;2022-09-20T04:23:58;6.50;;;1.95;;
64543;SDS011;50936;51.660;5.616;2022-09-20T04:26:36;7.90;;;2.25;;
64543;SDS011;50936;51.660;5.616;2022-09-20T04:38:00;5.03;;;2.20;;
64543;SDS011;50936;51.660;5.616;2022-09-20T04:43:23;5.53;;;2.10;;
64543;SDS011;50936;51.660;5.616;2022-09-20T04:52:13;7.18;;;2.30;;
64543;SDS011;50936;51.660;5.616;2022-09-20T04:55:31;13.75;;;2.55;;
64543;SDS011;50936;51.660;5.616;2022-09-20T05:06:48;10.05;;;2.35;;
64543;SDS011;50936;51.660;5.616;2022-09-20T05:14:57;9.85;;;2.90;;
64543;SDS011;50936;51.660;5.616;2022-09-20T05:27:17;11.38;;;2.55;;
64543;SDS011;50936;51.660;5.616;2022-09-20T05:29:30;10.48;;;3.47;;
64543;SDS011;50936;51.660;5.616;2022-09-20T05:32:47;8.02;;;3.40;;
64543;SDS011;50936;51.660;5.616;2022-09-20T05:35:18;13.35;;;3.45;;
64543;SDS011;50936;51.660;5.616;2022-09-20T05:38:10;9.52;;;3.22;;
64543;SDS011;50936;51.660;5.616;2022-09-20T05:41:26;11.10;;;3.60;;
64543;SDS011;50936;51.660;5.616;2022-09-20T05:58:22;8.88;;;3.85;;
64543;SDS011;50936;51.660;5.616;2022-09-20T06:04:06;6.80;;;3.20;;
64543;SDS011;50936;51.660;5.616;2022-09-20T06:07:03;9.50;;;3.63;;
64543;SDS011;50936;51.660;5.616;2022-09-20T06:13:10;8.73;;;3.20;;
64543;SDS011;50936;51.660;5.616;2022-09-20T06:18:35;9.75;;;3.22;;
64543;SDS011;50936;51.660;5.616;2022-09-20T06:21:39;10.45;;;3.35;;
64543;SDS011;50936;51.660;5.616;2022-09-20T06:24:25;9.43;;;3.42;;
64543;SDS011;50936;51.660;5.616;2022-09-20T06:27:03;10.20;;;4.15;;
64543;SDS011;50936;51.660;5.616;2022-09-20T06:29:39;10.98;;;3.42;;
64543;SDS011;50936;51.660;5.616;2022-09-20T06:32:17;11.70;;;3.35;;
64543;SDS011;50936;51.660;5.616;2022-09-20T06:34:45;7.90;;;3.00;;
64543;SDS011;50936;51.660;5.616;2022-09-20T06:43:30;10.27;;;3.58;;
64543;SDS011;50936;51.660;5.616;2022-09-20T06:45:57;9.55;;;2.88;;
64543;SDS011;50936;51.660;5.616;2022-09-20T06:48:24;13.50;;;3.38;;
64543;SDS011;50936;51.660;5.616;2022-09-20T06:50:51;7.40;;;2.92;;
64543;SDS011;50936;51.660;5.616;2022-09-20T06:53:25;6.80;;;3.00;;
64543;SDS011;50936;51.660;5.616;2022-09-20T06:55:58;8.80;;;3.15;;
64543;SDS011;50936;51.660;5.616;2022-09-20T06:58:27;7.50;;;2.78;;
64543;SDS011;50936;51.660;5.616;2022-09-20T07:00:54;5.43;;;2.58;;
64543;SDS011;50936;51.660;5.616;2022-09-20T07:03:21;9.90;;;3.17;;
64543;SDS011;50936;51.660;5.616;2022-09-20T07:05:48;12.13;;;3.78;;
64543;SDS011;50936;51.660;5.616;2022-09-20T07:08:15;9.23;;;2.90;;
64543;SDS011;50936;51.660;5.616;2022-09-20T07:10:42;12.65;;;3.30;;
64543;SDS011;50936;51.660;5.616;2022-09-20T07:13:10;12.68;;;3.70;;
64543;SDS011;50936;51.660;5.616;2022-09-20T07:15:39;13.13;;;3.53;;
64543;SDS011;50936;51.660;5.616;2022-09-20T07:18:06;9.38;;;4.13;;
64543;SDS011;50936;51.660;5.616;2022-09-20T07:20:33;7.82;;;3.30;;
64543;SDS011;50936;51.660;5.616;2022-09-20T07:23:00;7.30;;;3.42;;
64543;SDS011;50936;51.660;5.616;2022-09-20T07:25:28;8.63;;;3.38;;
64543;SDS011;50936;51.660;5.616;2022-09-20T07:27:56;8.43;;;3.58;;
64543;SDS011;50936;51.660;5.616;2022-09-20T07:30:23;5.88;;;3.08;;
64543;SDS011;50936;51.660;5.616;2022-09-20T07:32:50;10.73;;;3.70;;
64543;SDS011;50936;51.660;5.616;2022-09-20T07:35:17;9.07;;;3.50;;
64543;SDS011;50936;51.660;5.616;2022-09-20T07:37:44;8.93;;;3.95;;
64543;SDS011;50936;51.660;5.616;2022-09-20T07:40:12;8.93;;;4.32;;
64543;SDS011;50936;51.660;5.616;2022-09-20T07:42:40;7.53;;;3.40;;
64543;SDS011;50936;51.660;5.616;2022-09-20T07:45:07;9.35;;;3.50;;
64543;SDS011;50936;51.660;5.616;2022-09-20T07:47:34;9.15;;;3.58;;
64543;SDS011;50936;51.660;5.616;2022-09-20T07:50:02;7.55;;;3.92;;
64543;SDS011;50936;51.660;5.616;2022-09-20T07:52:29;8.75;;;3.75;;
64543;SDS011;50936;51.660;5.616;2022-09-20T07:54:56;8.55;;;3.63;;
64543;SDS011;50936;51.660;5.616;2022-09-20T07:57:23;9.82;;;3.92;;
64543;SDS011;50936;51.660;5.616;2022-09-20T07:59:50;10.55;;;3.83;;
64543;SDS011;50936;51.660;5.616;2022-09-20T08:02:17;9.38;;;3.47;;
64543;SDS011;50936;51.660;5.616;2022-09-20T08:04:44;9.70;;;3.00;;
64543;SDS011;50936;51.660;5.616;2022-09-20T08:07:15;7.32;;;3.17;;
64543;SDS011;50936;51.660;5.616;2022-09-20T08:09:42;10.63;;;3.80;;
64543;SDS011;50936;51.660;5.616;2022-09-20T08:12:08;9.88;;;3.67;;
64543;SDS011;50936;51.660;5.616;2022-09-20T08:14:55;6.97;;;3.45;;
64543;SDS011;50936;51.660;5.616;2022-09-20T08:17:22;8.90;;;3.08;;
64543;SDS011;50936;51.660;5.616;2022-09-20T08:19:49;9.95;;;3.10;;
64543;SDS011;50936;51.660;5.616;2022-09-20T08:22:18;5.63;;;2.42;;
64543;SDS011;50936;51.660;5.616;2022-09-20T08:24:45;5.40;;;2.30;;
64543;SDS011;50936;51.660;5.616;2022-09-20T08:27:12;7.45;;;2.42;;
64543;SDS011;50936;51.660;5.616;2022-09-20T08:29:39;5.55;;;1.83;;
64543;SDS011;50936;51.660;5.616;2022-09-20T08:32:06;7.65;;;1.90;;
64543;SDS011;50936;51.660;5.616;2022-09-20T08:34:33;8.40;;;3.08;;
64543;SDS011;50936;51.660;5.616;2022-09-20T08:36:59;12.95;;;2.58;;
64543;SDS011;50936;51.660;5.616;2022-09-20T08:39:26;7.85;;;2.50;;
64543;SDS011;50936;51.660;5.616;2022-09-20T08:42:17;11.65;;;2.95;;
64543;SDS011;50936;51.660;5.616;2022-09-20T08:48:00;8.20;;;2.75;;
64543;SDS011;50936;51.660;5.616;2022-09-20T08:50:35;6.90;;;2.22;;
64543;SDS011;50936;51.660;5.616;2022-09-20T08:53:02;5.57;;;1.73;;
64543;SDS011;50936;51.660;5.616;2022-09-20T08:55:30;2.88;;;1.13;;
64543;SDS011;50936;51.660;5.616;2022-09-20T08:58:03;3.60;;;1.00;;
64543;SDS011;50936;51.660;5.616;2022-09-20T09:00:34;5.45;;;1.20;;
64543;SDS011;50936;51.660;5.616;2022-09-20T09:03:04;4.38;;;1.33;;
64543;SDS011;50936;51.660;5.616;2022-09-20T09:08:12;3.17;;;1.13;;
64543;SDS011;50936;51.660;5.616;2022-09-20T09:10:45;4.38;;;1.17;;
64543;SDS011;50936;51.660;5.616;2022-09-20T09:13:21;4.97;;;1.23;;
64543;SDS011;50936;51.660;5.616;2022-09-20T09:16:08;4.55;;;1.40;;
64543;SDS011;50936;51.660;5.616;2022-09-20T09:18:44;6.10;;;1.38;;
64543;SDS011;50936;51.660;5.616;2022-09-20T09:21:18;3.85;;;1.15;;
64543;SDS011;50936;51.660;5.616;2022-09-20T09:24:02;3.88;;;1.20;;
64543;SDS011;50936;51.660;5.616;2022-09-20T09:26:36;10.50;;;1.70;;
64543;SDS011;50936;51.660;5.616;2022-09-20T09:31:50;4.72;;;1.08;;
64543;SDS011;50936;51.660;5.616;2022-09-20T09:37:04;3.65;;;1.00;;
64543;SDS011;50936;51.660;5.616;2022-09-20T09:39:32;5.00;;;1.17;;
64543;SDS011;50936;51.660;5.616;2022-09-20T09:42:19;3.92;;;1.05;;
64543;SDS011;50936;51.660;5.616;2022-09-20T09:44:51;5.18;;;1.25;;
64543;SDS011;50936;51.660;5.616;2022-09-20T09:47:22;6.95;;;1.25;;
64543;SDS011;50936;51.660;5.616;2022-09-20T09:49:57;4.22;;;1.23;;
64543;SDS011;50936;51.660;5.616;2022-09-20T09:52:31;10.10;;;1.35;;
64543;SDS011;50936;51.660;5.616;2022-09-20T09:55:00;4.30;;;1.05;;
64543;SDS011;50936;51.660;5.616;2022-09-20T10:00:39;8.48;;;1.25;;
64543;SDS011;50936;51.660;5.616;2022-09-20T10:03:24;4.28;;;1.05;;
64543;SDS011;50936;51.660;5.616;2022-09-20T10:06:06;2.17;;;0.70;;
64543;SDS011;50936;51.660;5.616;2022-09-20T10:14:36;6.75;;;1.42;;
64543;SDS011;50936;51.660;5.616;2022-09-20T10:20:25;3.65;;;1.00;;
64543;SDS011;50936;51.660;5.616;2022-09-20T10:23:37;2.50;;;0.88;;
64543;SDS011;50936;51.660;5.616;2022-09-20T10:29:40;4.53;;;1.13;;
64543;SDS011;50936;51.660;5.616;2022-09-20T10:38:22;2.83;;;0.85;;
64543;SDS011;50936;51.660;5.616;2022-09-20T10:41:25;0.82;;;0.50;;
64543;SDS011;50936;51.660;5.616;2022-09-20T10:44:26;1.73;;;0.65;;
64543;SDS011;50936;51.660;5.616;2022-09-20T10:47:42;2.00;;;0.73;;
64543;SDS011;50936;51.660;5.616;2022-09-20T10:50:23;3.85;;;0.80;;
64543;SDS011;50936;51.660;5.616;2022-09-20T11:07:16;4.40;;;1.23;;
64543;SDS011;50936;51.660;5.616;2022-09-20T11:09:56;5.30;;;2.28;;
64543;SDS011;50936;51.660;5.616;2022-09-20T11:12:36;3.70;;;1.15;;
64543;SDS011;50936;51.660;5.616;2022-09-20T11:15:23;2.67;;;1.05;;
64543;SDS011;50936;51.660;5.616;2022-09-20T11:21:07;4.60;;;1.13;;
64543;SDS011;50936;51.660;5.616;2022-09-20T11:23:53;3.10;;;0.85;;
64543;SDS011;50936;51.660;5.616;2022-09-20T11:26:37;3.65;;;0.90;;
64543;SDS011;50936;51.660;5.616;2022-09-20T11:29:17;1.65;;;1.00;;
64543;SDS011;50936;51.660;5.616;2022-09-20T11:32:07;2.47;;;0.80;;
64543;SDS011;50936;51.660;5.616;2022-09-20T11:34:52;7.65;;;1.10;;
64543;SDS011;50936;51.660;5.616;2022-09-20T11:37:34;4.72;;;1.25;;
64543;SDS011;50936;51.660;5.616;2022-09-20T11:42:45;2.80;;;0.70;;
64543;SDS011;50936;51.660;5.616;2022-09-20T11:45:13;2.67;;;0.70;;
64543;SDS011;50936;51.660;5.616;2022-09-20T11:47:42;4.40;;;1.25;;
64543;SDS011;50936;51.660;5.616;2022-09-20T11:55:50;3.50;;;0.98;;
64543;SDS011;50936;51.660;5.616;2022-09-20T12:01:33;2.10;;;0.73;;
64543;SDS011;50936;51.660;5.616;2022-09-20T12:04:12;3.90;;;0.60;;
64543;SDS011;50936;51.660;5.616;2022-09-20T12:07:04;1.45;;;0.55;;
64543;SDS011;50936;51.660;5.616;2022-09-20T12:09:51;1.80;;;0.88;;
64543;SDS011;50936;51.660;5.616;2022-09-20T12:12:30;2.20;;;0.80;;
64543;SDS011;50936;51.660;5.616;2022-09-20T12:18:26;1.27;;;0.50;;
64543;SDS011;50936;51.660;5.616;2022-09-20T12:28:47;5.53;;;0.85;;
64543;SDS011;50936;51.660;5.616;2022-09-20T12:36:31;2.58;;;0.82;;
64543;SDS011;50936;51.660;5.616;2022-09-20T12:47:19;1.98;;;0.50;;
64543;SDS011;50936;51.660;5.616;2022-09-20T12:49:50;3.85;;;0.60;;
64543;SDS011;50936;51.660;5.616;2022-09-20T12:58:35;3.63;;;0.80;;
64543;SDS011;50936;51.660;5.616;2022-09-20T13:03:49;3.30;;;0.63;;
64543;SDS011;50936;51.660;5.616;2022-09-20T13:09:01;3.00;;;0.73;;
64543;SDS011;50936;51.660;5.616;2022-09-20T13:14:21;3.88;;;0.60;;
64543;SDS011;50936;51.660;5.616;2022-09-20T13:19:53;1.95;;;0.90;;
64543;SDS011;50936;51.660;5.616;2022-09-20T13:22:27;4.90;;;1.08;;
64543;SDS011;50936;51.660;5.616;2022-09-20T13:25:03;4.70;;;0.82;;
64543;SDS011;50936;51.660;5.616;2022-09-20T13:30:32;2.92;;;0.70;;
64543;SDS011;50936;51.660;5.616;2022-09-20T13:35:53;3.45;;;1.23;;
64543;SDS011;50936;51.660;5.616;2022-09-20T13:38:25;4.53;;;1.00;;
64543;SDS011;50936;51.660;5.616;2022-09-20T13:41:07;2.33;;;0.70;;
64543;SDS011;50936;51.660;5.616;2022-09-20T13:43:47;4.43;;;0.80;;
64543;SDS011;50936;51.660;5.616;2022-09-20T13:46:20;3.67;;;0.90;;
64543;SDS011;50936;51.660;5.616;2022-09-20T13:48:58;1.83;;;0.63;;
64543;SDS011;50936;51.660;5.616;2022-09-20T13:51:49;4.30;;;0.82;;
64543;SDS011;50936;51.660;5.616;2022-09-20T13:54:18;3.35;;;0.98;;
64543;SDS011;50936;51.660;5.616;2022-09-20T13:56:54;1.70;;;0.80;;
64543;SDS011;50936;51.660;5.616;2022-09-20T13:59:31;4.03;;;1.00;;
64543;SDS011;50936;51.660;5.616;2022-09-20T14:02:10;5.53;;;1.05;;
64543;SDS011;50936;51.660;5.616;2022-09-20T14:04:54;9.90;;;1.10;;
64543;SDS011;50936;51.660;5.616;2022-09-20T14:07:27;4.50;;;0.82;;
64543;SDS011;50936;51.660;5.616;2022-09-20T14:09:56;3.03;;;0.73;;
64543;SDS011;50936;51.660;5.616;2022-09-20T14:12:24;2.15;;;0.70;;
64543;SDS011;50936;51.660;5.616;2022-09-20T14:14:53;6.05;;;0.90;;
64543;SDS011;50936;51.660;5.616;2022-09-20T14:17:21;3.90;;;0.90;;
64543;SDS011;50936;51.660;5.616;2022-09-20T14:19:51;5.93;;;1.02;;
64543;SDS011;50936;51.660;5.616;2022-09-20T14:22:22;5.18;;;1.08;;
64543;SDS011;50936;51.660;5.616;2022-09-20T14:28:03;4.78;;;1.00;;
64543;SDS011;50936;51.660;5.616;2022-09-20T14:30:44;4.10;;;0.90;;
64543;SDS011;50936;51.660;5.616;2022-09-20T14:33:18;3.70;;;0.88;;
64543;SDS011;50936;51.660;5.616;2022-09-20T14:35:49;3.42;;;0.70;;
64543;SDS011;50936;51.660;5.616;2022-09-20T14:38:18;1.88;;;0.80;;
64543;SDS011;50936;51.660;5.616;2022-09-20T14:40:51;2.10;;;0.60;;
64543;SDS011;50936;51.660;5.616;2022-09-20T14:45:54;1.10;;;0.50;;
64543;SDS011;50936;51.660;5.616;2022-09-20T14:48:30;1.23;;;0.60;;
64543;SDS011;50936;51.660;5.616;2022-09-20T14:51:24;3.38;;;0.90;;
64543;SDS011;50936;51.660;5.616;2022-09-20T14:56:32;2.97;;;0.80;;
64543;SDS011;50936;51.660;5.616;2022-09-20T14:59:04;3.60;;;0.90;;
64543;SDS011;50936;51.660;5.616;2022-09-20T15:01:40;4.07;;;0.82;;
64543;SDS011;50936;51.660;5.616;2022-09-20T15:04:18;2.13;;;0.82;;
64543;SDS011;50936;51.660;5.616;2022-09-20T15:06:49;5.55;;;0.90;;
64543;SDS011;50936;51.660;5.616;2022-09-20T15:09:17;5.25;;;0.98;;
64543;SDS011;50936;51.660;5.616;2022-09-20T15:12:03;4.60;;;0.80;;
64543;SDS011;50936;51.660;5.616;2022-09-20T15:14:41;2.63;;;0.90;;
64543;SDS011;50936;51.660;5.616;2022-09-20T15:17:09;6.63;;;0.93;;
64543;SDS011;50936;51.660;5.616;2022-09-20T15:19:44;5.30;;;1.38;;
64543;SDS011;50936;51.660;5.616;2022-09-20T15:22:13;5.57;;;1.10;;
64543;SDS011;50936;51.660;5.616;2022-09-20T15:24:41;8.30;;;1.00;;
64543;SDS011;50936;51.660;5.616;2022-09-20T15:27:10;2.90;;;0.95;;
64543;SDS011;50936;51.660;5.616;2022-09-20T15:29:37;3.25;;;1.05;;
64543;SDS011;50936;51.660;5.616;2022-09-20T15:32:04;4.78;;;0.90;;
64543;SDS011;50936;51.660;5.616;2022-09-20T15:34:32;4.43;;;1.10;;
64543;SDS011;50936;51.660;5.616;2022-09-20T15:36:59;6.13;;;0.90;;
64543;SDS011;50936;51.660;5.616;2022-09-20T15:39:25;2.53;;;0.90;;
64543;SDS011;50936;51.660;5.616;2022-09-20T15:41:53;5.22;;;0.90;;
64543;SDS011;50936;51.660;5.616;2022-09-20T15:44:20;3.30;;;0.77;;
64543;SDS011;50936;51.660;5.616;2022-09-20T15:46:48;6.32;;;0.90;;
64543;SDS011;50936;51.660;5.616;2022-09-20T15:49:16;5.93;;;0.95;;
64543;SDS011;50936;51.660;5.616;2022-09-20T15:51:43;3.22;;;0.90;;
64543;SDS011;50936;51.660;5.616;2022-09-20T15:54:11;5.90;;;1.38;;
64543;SDS011;50936;51.660;5.616;2022-09-20T15:56:40;4.93;;;0.90;;
64543;SDS011;50936;51.660;5.616;2022-09-20T15:59:08;3.38;;;1.05;;
64543;SDS011;50936;51.660;5.616;2022-09-20T16:01:40;3.75;;;0.90;;
64543;SDS011;50936;51.660;5.616;2022-09-20T16:04:10;3.15;;;0.90;;
64543;SDS011;50936;51.660;5.616;2022-09-20T16:06:45;6.13;;;1.13;;
64543;SDS011;50936;51.660;5.616;2022-09-20T16:09:14;3.15;;;0.80;;
64543;SDS011;50936;51.660;5.616;2022-09-20T16:11:43;4.50;;;0.95;;
64543;SDS011;50936;51.660;5.616;2022-09-20T16:14:11;2.03;;;0.88;;
64543;SDS011;50936;51.660;5.616;2022-09-20T16:16:38;9.25;;;1.52;;
64543;SDS011;50936;51.660;5.616;2022-09-20T16:19:07;6.30;;;1.23;;
64543;SDS011;50936;51.660;5.616;2022-09-20T16:21:50;5.65;;;1.23;;
64543;SDS011;50936;51.660;5.616;2022-09-20T16:24:24;4.97;;;1.10;;
64543;SDS011;50936;51.660;5.616;2022-09-20T16:26:57;4.75;;;1.30;;
64543;SDS011;50936;51.660;5.616;2022-09-20T16:29:28;5.03;;;1.00;;
64543;SDS011;50936;51.660;5.616;2022-09-20T16:31:56;4.65;;;1.35;;
64543;SDS011;50936;51.660;5.616;2022-09-20T16:34:26;2.92;;;1.10;;
64543;SDS011;50936;51.660;5.616;2022-09-20T16:37:03;3.20;;;1.20;;
64543;SDS011;50936;51.660;5.616;2022-09-20T16:39:35;4.90;;;1.10;;
64543;SDS011;50936;51.660;5.616;2022-09-20T16:42:03;4.32;;;1.15;;
64543;SDS011;50936;51.660;5.616;2022-09-20T16:44:37;5.93;;;1.25;;
64543;SDS011;50936;51.660;5.616;2022-09-20T16:47:09;1.52;;;1.08;;
64543;SDS011;50936;51.660;5.616;2022-09-20T16:49:39;5.45;;;1.52;;
64543;SDS011;50936;51.660;5.616;2022-09-20T16:52:07;3.60;;;1.33;;
64543;SDS011;50936;51.660;5.616;2022-09-20T16:54:34;4.05;;;1.02;;
64543;SDS011;50936;51.660;5.616;2022-09-20T16:57:01;3.05;;;0.93;;
64543;SDS011;50936;51.660;5.616;2022-09-20T16:59:28;5.90;;;1.00;;
64543;SDS011;50936;51.660;5.616;2022-09-20T17:01:55;4.03;;;0.98;;
64543;SDS011;50936;51.660;5.616;2022-09-20T17:04:22;4.30;;;1.00;;
64543;SDS011;50936;51.660;5.616;2022-09-20T17:06:49;4.13;;;0.95;;
64543;SDS011;50936;51.660;5.616;2022-09-20T17:09:17;7.03;;;1.25;;
64543;SDS011;50936;51.660;5.616;2022-09-20T17:11:45;3.72;;;1.20;;
64543;SDS011;50936;51.660;5.616;2022-09-20T17:14:16;3.35;;;1.23;;
64543;SDS011;50936;51.660;5.616;2022-09-20T17:16:45;7.90;;;1.15;;
64543;SDS011;50936;51.660;5.616;2022-09-20T17:19:14;4.93;;;1.50;;
64543;SDS011;50936;51.660;5.616;2022-09-20T17:21:45;3.17;;;1.40;;
64543;SDS011;50936;51.660;5.616;2022-09-20T17:24:16;3.88;;;1.40;;
64543;SDS011;50936;51.660;5.616;2022-09-20T17:26:46;6.57;;;1.20;;
64543;SDS011;50936;51.660;5.616;2022-09-20T17:29:15;6.20;;;1.55;;
64543;SDS011;50936;51.660;5.616;2022-09-20T17:31:44;2.08;;;1.10;;
64543;SDS011;50936;51.660;5.616;2022-09-20T17:34:20;4.55;;;1.15;;
64543;SDS011;50936;51.660;5.616;2022-09-20T17:36:48;3.85;;;1.25;;
64543;SDS011;50936;51.660;5.616;2022-09-20T17:39:16;4.93;;;1.30;;
64543;SDS011;50936;51.660;5.616;2022-09-20T17:41:47;3.08;;;1.10;;
64543;SDS011;50936;51.660;5.616;2022-09-20T17:44:15;3.95;;;1.35;;
64543;SDS011;50936;51.660;5.616;2022-09-20T17:46:43;4.28;;;1.10;;
64543;SDS011;50936;51.660;5.616;2022-09-20T17:49:14;6.93;;;1.30;;
64543;SDS011;50936;51.660;5.616;2022-09-20T17:51:48;9.85;;;1.33;;
64543;SDS011;50936;51.660;5.616;2022-09-20T17:54:17;3.90;;;1.20;;
64543;SDS011;50936;51.660;5.616;2022-09-20T17:56:46;5.57;;;1.27;;
64543;SDS011;50936;51.660;5.616;2022-09-20T17:59:16;5.60;;;1.60;;
64543;SDS011;50936;51.660;5.616;2022-09-20T18:01:46;4.97;;;1.13;;
64543;SDS011;50936;51.660;5.616;2022-09-20T18:04:16;3.08;;;1.60;;
64543;SDS011;50936;51.660;5.616;2022-09-20T18:06:47;5.13;;;1.30;;
64543;SDS011;50936;51.660;5.616;2022-09-20T18:09:18;6.22;;;1.77;;
64543;SDS011;50936;51.660;5.616;2022-09-20T18:11:51;5.57;;;1.95;;
64543;SDS011;50936;51.660;5.616;2022-09-20T18:14:21;6.63;;;2.05;;
64543;SDS011;50936;51.660;5.616;2022-09-20T18:16:55;4.68;;;1.67;;
64543;SDS011;50936;51.660;5.616;2022-09-20T18:19:26;6.78;;;1.92;;
64543;SDS011;50936;51.660;5.616;2022-09-20T18:22:00;4.00;;;1.75;;
64543;SDS011;50936;51.660;5.616;2022-09-20T18:24:29;5.90;;;1.83;;
64543;SDS011;50936;51.660;5.616;2022-09-20T18:26:56;8.30;;;1.92;;
64543;SDS011;50936;51.660;5.616;2022-09-20T18:29:25;6.03;;;1.80;;
64543;SDS011;50936;51.660;5.616;2022-09-20T18:31:53;5.10;;;1.90;;
64543;SDS011;50936;51.660;5.616;2022-09-20T18:34:23;5.80;;;1.67;;
64543;SDS011;50936;51.660;5.616;2022-09-20T18:36:56;6.20;;;1.88;;
64543;SDS011;50936;51.660;5.616;2022-09-20T18:39:29;6.35;;;1.70;;
64543;SDS011;50936;51.660;5.616;2022-09-20T18:41:58;8.07;;;2.35;;
64543;SDS011;50936;51.660;5.616;2022-09-20T18:44:27;8.95;;;1.88;;
64543;SDS011;50936;51.660;5.616;2022-09-20T18:46:57;5.22;;;2.05;;
64543;SDS011;50936;51.660;5.616;2022-09-20T18:49:28;8.52;;;2.50;;
64543;SDS011;50936;51.660;5.616;2022-09-20T18:51:56;9.35;;;2.38;;
64543;SDS011;50936;51.660;5.616;2022-09-20T18:54:23;7.28;;;2.38;;
64543;SDS011;50936;51.660;5.616;2022-09-20T18:56:50;8.73;;;2.35;;
64543;SDS011;50936;51.660;5.616;2022-09-20T18:59:18;6.85;;;2.50;;
64543;SDS011;50936;51.660;5.616;2022-09-20T19:13:24;10.02;;;3.20;;
64543;SDS011;50936;51.660;5.616;2022-09-20T19:16:18;14.68;;;3.38;;
64543;SDS011;50936;51.660;5.616;2022-09-20T19:21:36;6.00;;;3.10;;
64543;SDS011;50936;51.660;5.616;2022-09-20T19:27:43;8.95;;;2.40;;
64543;SDS011;50936;51.660;5.616;2022-09-20T19:30:11;8.95;;;2.28;;
64543;SDS011;50936;51.660;5.616;2022-09-20T19:32:40;5.97;;;2.00;;
64543;SDS011;50936;51.660;5.616;2022-09-20T19:35:14;5.50;;;1.73;;
64543;SDS011;50936;51.660;5.616;2022-09-20T19:37:59;4.28;;;2.08;;
64543;SDS011;50936;51.660;5.616;2022-09-20T19:40:45;6.20;;;1.98;;
64543;SDS011;50936;51.660;5.616;2022-09-20T19:49:57;5.63;;;1.98;;
64543;SDS011;50936;51.660;5.616;2022-09-20T19:52:35;8.60;;;2.03;;
64543;SDS011;50936;51.660;5.616;2022-09-20T19:55:04;8.20;;;2.05;;
64543;SDS011;50936;51.660;5.616;2022-09-20T19:57:38;5.15;;;2.15;;
64543;SDS011;50936;51.660;5.616;2022-09-20T20:00:13;6.13;;;1.90;;
64543;SDS011;50936;51.660;5.616;2022-09-20T20:02:43;5.30;;;2.20;;
64543;SDS011;50936;51.660;5.616;2022-09-20T20:05:14;5.60;;;2.42;;
64543;SDS011;50936;51.660;5.616;2022-09-20T20:08:38;9.40;;;2.50;;
64543;SDS011;50936;51.660;5.616;2022-09-20T20:10:57;6.65;;;2.20;;
64543;SDS011;50936;51.660;5.616;2022-09-20T20:16:47;8.07;;;2.17;;
64543;SDS011;50936;51.660;5.616;2022-09-20T20:24:51;7.07;;;2.35;;
64543;SDS011;50936;51.660;5.616;2022-09-20T20:27:19;6.85;;;1.90;;
64543;SDS011;50936;51.660;5.616;2022-09-20T20:29:46;8.73;;;2.10;;
64543;SDS011;50936;51.660;5.616;2022-09-20T20:32:14;6.28;;;2.20;;
64543;SDS011;50936;51.660;5.616;2022-09-20T20:34:42;4.80;;;2.08;;
64543;SDS011;50936;51.660;5.616;2022-09-20T20:37:08;8.65;;;2.45;;
64543;SDS011;50936;51.660;5.616;2022-09-20T20:39:35;5.43;;;1.92;;
64543;SDS011;50936;51.660;5.616;2022-09-20T20:42:02;9.82;;;2.10;;
64543;SDS011;50936;51.660;5.616;2022-09-20T20:44:32;8.10;;;2.10;;
64543;SDS011;50936;51.660;5.616;2022-09-20T20:47:05;7.63;;;2.30;;
64543;SDS011;50936;51.660;5.616;2022-09-20T20:49:32;9.70;;;2.25;;
64543;SDS011;50936;51.660;5.616;2022-09-20T20:52:01;5.57;;;2.10;;
64543;SDS011;50936;51.660;5.616;2022-09-20T20:54:30;16.35;;;2.78;;
64543;SDS011;50936;51.660;5.616;2022-09-20T20:56:58;8.93;;;2.30;;
64543;SDS011;50936;51.660;5.616;2022-09-20T20:59:25;6.07;;;2.65;;
64543;SDS011;50936;51.660;5.616;2022-09-20T21:01:52;6.63;;;2.53;;
64543;SDS011;50936;51.660;5.616;2022-09-20T21:04:19;8.02;;;2.53;;
64543;SDS011;50936;51.660;5.616;2022-09-20T21:06:47;6.35;;;2.38;;
64543;SDS011;50936;51.660;5.616;2022-09-20T21:09:15;9.10;;;2.50;;
64543;SDS011;50936;51.660;5.616;2022-09-20T21:11:42;8.70;;;2.58;;
64543;SDS011;50936;51.660;5.616;2022-09-20T21:14:10;8.30;;;2.42;;